Time;durP1;ratioP1;P1;durP2;ratioP2;P2;SDS_P1;SDS_P2;PMS_P1;PMS_P2;Temp;Humidity;BMP_temperature;BMP_pressure;BME280_temperature;BME280_humidity;BME280_pressure;Samples;Min_cycle;Max_cycle;Signal;HPM_P1;HPM_P2
2023/08/21 00:01:52;;;;;;;16.00;6.33;;;;;;;29.07;54.47;97947.53;5135483;27;20207;-76
2023/08/21 00:04:18;;;;;;;7.80;6.20;;;;;;;29.06;54.25;97954.00;5133932;27;20181;-75
2023/08/21 00:06:43;;;;;;;11.30;6.43;;;;;;;29.06;54.46;97959.41;5154716;27;20595;-75
2023/08/21 00:09:08;;;;;;;6.73;5.47;;;;;;;29.04;54.66;97946.19;5137878;27;20262;-76
2023/08/21 00:11:35;;;;;;;7.97;5.90;;;;;;;29.00;54.41;97960.41;5133338;27;20215;-76
2023/08/21 00:14:00;;;;;;;12.33;6.13;;;;;;;28.96;54.89;97957.41;5137867;27;20474;-76
2023/08/21 00:16:26;;;;;;;8.63;6.33;;;;;;;28.95;54.69;97956.59;5145853;27;20435;-75
2023/08/21 00:18:52;;;;;;;9.47;6.40;;;;;;;28.90;54.79;97961.13;5138622;27;20184;-75
2023/08/21 00:21:19;;;;;;;11.10;6.60;;;;;;;28.86;55.03;97960.81;5132330;27;20516;-76
2023/08/21 00:23:44;;;;;;;8.43;6.30;;;;;;;28.81;55.09;97958.88;5145911;27;20199;-76
2023/08/21 00:26:09;;;;;;;8.30;5.60;;;;;;;28.82;55.26;97959.69;5119382;27;20435;-76
2023/08/21 00:28:35;;;;;;;8.93;6.67;;;;;;;28.81;55.08;97958.06;5122946;27;20200;-76
2023/08/21 00:31:04;;;;;;;6.67;6.00;;;;;;;28.79;55.16;97955.63;5139506;27;20216;-76
2023/08/21 00:33:33;;;;;;;6.20;5.60;;;;;;;28.78;55.03;97961.25;5125993;27;20212;-76
2023/08/21 00:35:59;;;;;;;6.43;5.80;;;;;;;28.78;55.21;97954.00;5061481;27;20856;-76
2023/08/21 00:38:25;;;;;;;7.00;5.53;;;;;;;28.76;55.42;97956.13;5083736;27;20431;-75
2023/08/21 00:40:51;;;;;;;6.87;6.17;;;;;;;28.72;55.11;97949.59;5091164;27;20176;-75
2023/08/21 00:43:16;;;;;;;6.90;5.90;;;;;;;28.66;55.16;97946.00;5098610;27;20491;-76
2023/08/21 00:45:43;;;;;;;7.03;5.43;;;;;;;28.73;55.30;97942.34;5138081;27;20291;-75
2023/08/21 00:48:09;;;;;;;8.43;5.70;;;;;;;28.69;55.22;97941.97;5111116;27;20193;-74
2023/08/21 00:50:35;;;;;;;7.83;5.40;;;;;;;28.71;55.24;97941.75;5118840;27;20477;-76
2023/08/21 00:53:01;;;;;;;7.13;5.90;;;;;;;28.65;55.55;97944.38;5099658;28;20507;-75
2023/08/21 00:55:27;;;;;;;6.57;5.63;;;;;;;28.63;55.22;97935.72;5125851;27;20429;-75
2023/08/21 00:57:52;;;;;;;6.37;5.80;;;;;;;28.62;55.30;97942.19;5146287;27;20458;-75
2023/08/21 01:00:18;;;;;;;7.23;5.50;;;;;;;28.57;55.52;97934.03;5111743;27;20183;-75
2023/08/21 01:02:43;;;;;;;26.33;6.93;;;;;;;28.54;55.45;97934.53;5113523;27;20261;-75
2023/08/21 01:05:09;;;;;;;8.97;6.30;;;;;;;28.53;55.54;97940.19;5134801;27;20252;-75
2023/08/21 01:07:41;;;;;;;6.97;5.50;;;;;;;28.51;55.57;97935.88;5129060;27;20191;-74
2023/08/21 01:10:16;;;;;;;6.13;5.53;;;;;;;28.47;55.48;97931.25;5105852;28;20208;-73
2023/08/21 01:12:50;;;;;;;6.67;5.33;;;;;;;28.43;55.60;97932.78;5102275;28;20442;-75
2023/08/21 01:15:16;;;;;;;8.17;5.63;;;;;;;28.42;55.54;97940.06;5138112;27;20430;-75
2023/08/21 01:17:43;;;;;;;12.90;5.63;;;;;;;28.41;55.78;97934.91;5143836;27;20553;-75
2023/08/21 01:20:09;;;;;;;9.03;6.00;;;;;;;28.34;55.91;97938.63;5115710;28;20430;-74
2023/08/21 01:22:39;;;;;;;7.17;6.07;;;;;;;28.33;55.92;97937.00;5120412;27;20540;-75
2023/08/21 01:25:05;;;;;;;7.77;5.87;;;;;;;28.33;56.27;97941.56;5135281;27;20456;-75
2023/08/21 01:27:31;;;;;;;8.53;6.30;;;;;;;28.29;56.29;97940.44;5131003;27;20417;-75
2023/08/21 01:29:57;;;;;;;7.90;5.73;;;;;;;28.25;56.08;97942.81;5124843;27;20468;-75
2023/08/21 01:32:27;;;;;;;8.27;5.80;;;;;;;28.26;56.28;97943.63;5114325;27;20442;-75
2023/08/21 01:34:55;;;;;;;6.70;6.10;;;;;;;28.21;56.16;97955.16;5123614;27;20764;-75
2023/08/21 01:37:21;;;;;;;6.70;6.00;;;;;;;28.20;56.48;97942.75;5122689;27;20784;-75
2023/08/21 01:39:46;;;;;;;7.27;6.10;;;;;;;28.19;56.39;97951.91;5120690;27;20424;-75
2023/08/21 01:42:12;;;;;;;8.60;6.03;;;;;;;28.15;56.29;97939.97;5117165;27;21164;-74
2023/08/21 01:44:37;;;;;;;6.87;6.10;;;;;;;28.09;56.41;97943.69;5135065;27;20276;-74
2023/08/21 01:47:03;;;;;;;7.33;5.40;;;;;;;28.04;56.59;97939.81;5133134;27;20180;-75
2023/08/21 01:49:28;;;;;;;10.03;5.90;;;;;;;28.02;56.89;97946.53;5115882;27;20687;-74
2023/08/21 01:51:54;;;;;;;6.30;5.70;;;;;;;27.99;56.47;97945.13;5133020;27;20200;-75
2023/08/21 01:54:19;;;;;;;7.27;5.60;;;;;;;27.98;56.47;97934.59;5133013;27;20279;-75
2023/08/21 01:56:45;;;;;;;7.73;5.53;;;;;;;27.93;56.64;97943.44;5140493;27;20211;-74
2023/08/21 01:59:10;;;;;;;13.43;5.80;;;;;;;27.90;56.88;97941.22;5118251;27;20189;-75
2023/08/21 02:01:36;;;;;;;6.93;6.00;;;;;;;27.86;56.76;97934.69;5126567;27;20214;-75
2023/08/21 02:04:01;;;;;;;7.50;6.20;;;;;;;27.81;57.01;97940.03;5137120;27;20268;-75
2023/08/21 02:06:26;;;;;;;6.90;6.13;;;;;;;27.80;56.87;97938.38;5145387;27;20271;-73
2023/08/21 02:08:52;;;;;;;10.90;6.00;;;;;;;27.78;56.92;97943.19;5132943;27;20204;-74
2023/08/21 02:11:17;;;;;;;6.67;5.80;;;;;;;27.78;56.90;97938.66;5127478;27;20291;-74
2023/08/21 02:13:43;;;;;;;6.53;5.63;;;;;;;27.73;57.08;97933.97;5150997;27;20209;-75
2023/08/21 02:16:08;;;;;;;17.43;6.63;;;;;;;27.73;57.09;97931.28;5139489;27;20237;-74
2023/08/21 02:18:34;;;;;;;6.80;6.10;;;;;;;27.68;57.29;97933.91;5131982;27;20207;-73
2023/08/21 02:21:02;;;;;;;6.70;6.00;;;;;;;27.64;57.25;97930.06;5120215;27;20236;-74
2023/08/21 02:23:28;;;;;;;6.50;5.50;;;;;;;27.61;57.27;97930.56;5141008;27;20212;-75
2023/08/21 02:25:54;;;;;;;6.30;5.70;;;;;;;27.59;57.06;97933.50;5143403;27;20444;-74
2023/08/21 02:28:19;;;;;;;6.63;5.87;;;;;;;27.59;56.99;97933.50;5137179;27;20426;-75
2023/08/21 02:30:45;;;;;;;5.77;5.30;;;;;;;27.50;57.51;97932.28;5141496;27;20200;-75
2023/08/21 02:33:10;;;;;;;7.97;5.80;;;;;;;27.43;57.74;97935.13;5137647;27;20747;-75
2023/08/21 02:35:36;;;;;;;7.67;6.20;;;;;;;27.41;57.78;97939.91;5151787;27;20558;-74
2023/08/21 02:38:01;;;;;;;10.10;5.73;;;;;;;27.39;57.63;97933.97;5140307;27;20264;-76
2023/08/21 02:40:27;;;;;;;6.53;5.93;;;;;;;27.38;57.66;97937.72;5128528;27;20271;-75
2023/08/21 02:42:52;;;;;;;10.70;6.43;;;;;;;27.38;57.48;97937.72;5134357;27;20714;-75
2023/08/21 02:45:19;;;;;;;10.60;5.70;;;;;;;27.36;57.47;97942.50;5138224;27;20248;-75
2023/08/21 02:47:44;;;;;;;8.40;5.53;;;;;;;27.37;57.52;97944.16;5149305;27;20664;-75
2023/08/21 02:50:10;;;;;;;9.70;5.90;;;;;;;27.32;57.65;97936.00;5125432;27;20452;-75
2023/08/21 02:52:36;;;;;;;8.70;5.93;;;;;;;27.29;57.68;97944.56;5131787;27;20792;-74
2023/08/21 02:55:02;;;;;;;6.37;5.83;;;;;;;27.29;57.77;97936.50;5144830;27;20245;-75
2023/08/21 02:57:28;;;;;;;7.90;6.40;;;;;;;27.29;57.71;97939.97;5124908;27;20418;-75
2023/08/21 02:59:54;;;;;;;12.30;5.77;;;;;;;27.26;57.97;97940.50;5134436;27;20423;-74
2023/08/21 03:02:20;;;;;;;7.77;6.20;;;;;;;27.19;58.39;97944.38;5143724;27;20617;-75
2023/08/21 03:04:46;;;;;;;7.73;5.73;;;;;;;27.20;58.36;97941.44;5134240;27;21126;-75
2023/08/21 03:07:11;;;;;;;7.60;6.47;;;;;;;27.18;58.59;97940.06;5138705;27;20465;-74
2023/08/21 03:09:37;;;;;;;9.70;6.10;;;;;;;27.14;58.87;97940.53;5108111;27;20223;-74
2023/08/21 03:12:03;;;;;;;8.57;6.60;;;;;;;27.12;58.29;97937.28;5131291;27;20822;-75
2023/08/21 03:14:29;;;;;;;9.67;5.97;;;;;;;27.09;58.30;97940.44;5079975;28;20939;-73
2023/08/21 03:16:54;;;;;;;11.33;6.93;;;;;;;27.13;58.06;97941.59;5066504;27;20423;-75
2023/08/21 03:19:20;;;;;;;6.77;6.00;;;;;;;27.10;58.17;97942.06;5086724;27;20700;-74
2023/08/21 03:21:45;;;;;;;6.23;5.63;;;;;;;27.07;58.31;97942.56;5069794;27;20224;-75
2023/08/21 03:24:11;;;;;;;6.73;6.13;;;;;;;27.01;58.60;97940.03;5144453;27;20254;-74
2023/08/21 03:26:36;;;;;;;8.03;6.20;;;;;;;26.97;58.67;97943.19;5122161;27;20727;-75
2023/08/21 03:29:02;;;;;;;12.80;6.10;;;;;;;26.95;58.54;97939.94;5127077;27;20629;-73
2023/08/21 03:31:27;;;;;;;11.63;6.10;;;;;;;26.99;58.38;97940.25;5113639;27;20584;-74
2023/08/21 03:33:53;;;;;;;8.03;5.70;;;;;;;26.95;58.40;97933.75;5111153;27;20197;-75
2023/08/21 03:36:19;;;;;;;10.80;6.03;;;;;;;26.95;58.44;97944.50;5130075;27;20202;-75
2023/08/21 03:38:44;;;;;;;8.53;6.27;;;;;;;26.97;58.43;97939.69;5111647;27;20196;-75
2023/08/21 03:41:11;;;;;;;6.93;6.23;;;;;;;26.89;58.75;97935.53;5139289;27;20185;-75
2023/08/21 03:43:36;;;;;;;8.83;6.50;;;;;;;26.89;59.15;97934.69;5106413;27;20207;-74
2023/08/21 03:46:02;;;;;;;9.67;6.57;;;;;;;26.88;58.81;97944.66;5121565;27;20992;-74
2023/08/21 03:48:27;;;;;;;9.53;6.67;;;;;;;26.92;58.68;97947.66;5130364;27;20227;-76
2023/08/21 03:50:53;;;;;;;8.00;6.37;;;;;;;26.89;58.50;97935.53;5112408;27;20323;-75
2023/08/21 03:53:18;;;;;;;9.43;6.57;;;;;;;26.86;58.62;97937.88;5130876;27;20299;-75
2023/08/21 03:55:44;;;;;;;7.60;6.43;;;;;;;26.84;58.60;97943.50;5120282;27;20802;-74
2023/08/21 03:58:09;;;;;;;13.20;6.80;;;;;;;26.83;58.77;97958.81;5136376;27;20279;-75
2023/08/21 04:00:35;;;;;;;8.03;6.60;;;;;;;26.76;58.98;97957.28;5133709;27;20187;-73
2023/08/21 04:03:00;;;;;;;7.27;6.57;;;;;;;26.72;59.24;97956.94;5095140;27;20207;-76
2023/08/21 04:05:26;;;;;;;6.83;6.13;;;;;;;26.69;59.57;97962.81;5123875;27;20246;-76
2023/08/21 04:07:51;;;;;;;7.90;6.60;;;;;;;26.72;58.98;97962.31;5129084;27;20212;-74
2023/08/21 04:10:17;;;;;;;7.47;6.30;;;;;;;26.65;59.21;97972.41;5145362;27;20283;-75
2023/08/21 04:12:42;;;;;;;7.47;6.77;;;;;;;26.66;59.20;97964.09;5146627;27;20211;-76
2023/08/21 04:15:08;;;;;;;9.07;7.07;;;;;;;26.65;59.26;97977.78;5146912;27;20192;-75
2023/08/21 04:17:34;;;;;;;7.90;6.40;;;;;;;26.61;59.34;97971.22;5133022;27;20263;-76
2023/08/21 04:19:59;;;;;;;11.40;6.50;;;;;;;26.58;59.32;97974.41;5114083;27;20500;-74
2023/08/21 04:22:25;;;;;;;7.50;6.37;;;;;;;26.50;59.57;97978.28;5131323;27;20214;-75
2023/08/21 04:24:50;;;;;;;10.80;7.27;;;;;;;26.45;60.05;97970.94;5128120;27;20199;-76
2023/08/21 04:27:16;;;;;;;7.90;6.50;;;;;;;26.44;60.03;97977.38;5128203;27;20216;-75
2023/08/21 04:29:41;;;;;;;12.47;6.73;;;;;;;26.45;59.77;97981.69;5129330;27;20197;-75
2023/08/21 04:32:07;;;;;;;9.07;6.43;;;;;;;26.47;59.72;97982.25;5129106;27;20268;-76
2023/08/21 04:34:33;;;;;;;10.30;6.97;;;;;;;26.42;59.89;97984.84;5137969;27;20188;-75
2023/08/21 04:36:58;;;;;;;10.57;7.10;;;;;;;26.39;60.08;97985.31;5140476;27;20709;-75
2023/08/21 04:39:23;;;;;;;7.73;6.50;;;;;;;26.43;60.09;97983.78;5119890;27;20184;-75
2023/08/21 04:41:49;;;;;;;13.23;6.80;;;;;;;26.43;60.02;97988.31;5141904;27;20220;-75
2023/08/21 04:44:15;;;;;;;9.20;6.30;;;;;;;26.45;59.88;97984.38;5087005;28;20672;-75
2023/08/21 04:46:40;;;;;;;7.00;6.20;;;;;;;26.43;59.73;97983.78;5069434;28;20189;-75
2023/08/21 04:49:05;;;;;;;8.67;6.20;;;;;;;26.36;59.68;97981.22;5075536;27;20272;-75
2023/08/21 04:51:31;;;;;;;7.70;6.50;;;;;;;26.37;59.93;97988.22;5076495;27;20747;-74
2023/08/21 04:53:57;;;;;;;8.57;6.70;;;;;;;26.37;59.96;97979.34;5127392;27;20263;-75
2023/08/21 04:56:22;;;;;;;11.97;6.37;;;;;;;26.39;59.89;97985.31;5139711;27;20222;-74
2023/08/21 04:58:47;;;;;;;15.20;7.20;;;;;;;26.42;60.18;97984.84;5129357;27;20276;-75
2023/08/21 05:01:13;;;;;;;8.90;7.00;;;;;;;26.45;59.86;97983.53;5144218;27;20202;-75
2023/08/21 05:03:38;;;;;;;10.90;6.43;;;;;;;26.43;60.01;97978.41;5137364;27;20292;-74
2023/08/21 05:06:04;;;;;;;8.70;6.60;;;;;;;26.44;59.82;97988.09;5143298;27;20270;-76
2023/08/21 05:08:29;;;;;;;12.40;6.70;;;;;;;26.48;59.61;97988.44;5122760;27;20217;-74
2023/08/21 05:10:56;;;;;;;7.47;6.77;;;;;;;26.51;59.97;97991.47;5125980;27;20233;-75
2023/08/21 05:13:21;;;;;;;11.90;6.97;;;;;;;26.48;60.05;97989.25;5121069;27;20670;-75
2023/08/21 05:15:54;;;;;;;7.83;6.83;;;;;;;26.48;59.91;97989.25;5114531;28;20465;-74
2023/08/21 05:18:20;;;;;;;8.17;6.90;;;;;;;26.53;59.97;97996.59;5096805;28;20639;-75
2023/08/21 05:20:46;;;;;;;6.87;6.27;;;;;;;26.58;59.74;98003.97;5130011;27;20410;-75
2023/08/21 05:23:12;;;;;;;10.80;6.93;;;;;;;26.61;60.06;98003.47;5104893;27;20566;-75
2023/08/21 05:25:38;;;;;;;9.10;6.80;;;;;;;26.64;59.80;98001.16;5110308;28;20427;-76
2023/08/21 05:28:04;;;;;;;14.30;6.93;;;;;;;26.67;59.84;98007.91;5129119;27;20199;-75
2023/08/21 05:30:30;;;;;;;11.00;7.07;;;;;;;26.69;60.07;98000.44;5140715;27;20451;-74
2023/08/21 05:32:55;;;;;;;11.23;6.57;;;;;;;26.75;60.00;98004.84;5140602;27;20432;-75
2023/08/21 05:35:21;;;;;;;11.37;7.27;;;;;;;26.81;59.83;98000.41;5140393;27;20176;-75
2023/08/21 05:37:46;;;;;;;7.50;6.73;;;;;;;26.86;59.83;98011.28;5133328;27;20183;-75
2023/08/21 05:40:12;;;;;;;10.40;7.23;;;;;;;26.90;59.90;98008.94;5137265;27;20207;-75
2023/08/21 05:42:38;;;;;;;8.87;6.60;;;;;;;26.98;59.68;98014.75;5116492;28;20226;-75
2023/08/21 05:45:04;;;;;;;13.00;6.83;;;;;;;27.06;59.50;98010.88;5135816;27;20449;-75
2023/08/21 05:47:30;;;;;;;7.37;6.63;;;;;;;27.07;59.58;98015.19;5127873;27;20683;-75
2023/08/21 05:49:55;;;;;;;8.23;6.97;;;;;;;27.13;59.26;98006.16;5129363;27;20441;-75
2023/08/21 05:52:22;;;;;;;10.80;6.73;;;;;;;27.17;59.06;98016.44;5145406;27;20212;-76
2023/08/21 05:54:48;;;;;;;8.77;6.63;;;;;;;27.25;58.97;98014.19;5128433;27;20183;-74
2023/08/21 05:57:13;;;;;;;9.27;6.97;;;;;;;27.30;58.74;98010.78;5149191;27;20481;-75
2023/08/21 05:59:44;;;;;;;10.80;6.80;;;;;;;27.40;58.47;98010.94;5130161;27;20188;-74
2023/08/21 06:02:10;;;;;;;12.57;6.53;;;;;;;27.51;58.17;98016.53;5134483;27;20217;-75
2023/08/21 06:04:35;;;;;;;8.90;6.30;;;;;;;27.63;57.52;98019.16;5130468;27;20425;-74
2023/08/21 06:07:00;;;;;;;7.97;6.27;;;;;;;27.74;57.28;98013.69;5126833;27;20886;-74
2023/08/21 06:09:29;;;;;;;9.23;7.20;;;;;;;27.90;57.04;98016.63;5136605;27;20196;-76
2023/08/21 06:11:54;;;;;;;8.07;6.90;;;;;;;28.05;56.71;98016.88;5137218;27;20253;-74
2023/08/21 06:14:20;;;;;;;8.40;6.83;;;;;;;28.18;56.55;98014.94;5141227;27;20894;-74
2023/08/21 06:16:45;;;;;;;7.67;6.40;;;;;;;28.35;56.45;98017.59;5132545;27;20604;-76
2023/08/21 06:19:11;;;;;;;9.47;5.83;;;;;;;28.48;55.35;98022.63;5129960;27;20229;-75
2023/08/21 06:21:36;;;;;;;10.27;6.33;;;;;;;28.56;54.04;98024.06;5126079;27;20228;-76
2023/08/21 06:24:02;;;;;;;10.20;6.90;;;;;;;28.72;53.55;98019.72;5122295;27;20192;-75
2023/08/21 06:26:27;;;;;;;11.27;5.60;;;;;;;28.90;53.78;98015.06;5132442;27;20184;-76
2023/08/21 06:28:53;;;;;;;7.00;5.93;;;;;;;29.07;52.93;98020.38;5113924;27;20190;-76
2023/08/21 06:31:18;;;;;;;11.13;6.43;;;;;;;29.22;52.89;98025.94;5128468;27;20200;-75
2023/08/21 06:33:44;;;;;;;10.20;5.67;;;;;;;29.35;52.06;98021.25;5140805;27;20210;-75
2023/08/21 06:36:09;;;;;;;6.30;5.40;;;;;;;29.45;51.67;98024.03;5126901;27;20226;-75
2023/08/21 06:38:34;;;;;;;6.87;5.80;;;;;;;29.57;51.06;98019.28;5132132;27;20219;-74
2023/08/21 06:41:00;;;;;;;10.03;6.20;;;;;;;29.74;51.52;98018.34;5131978;27;20184;-75
2023/08/21 06:43:25;;;;;;;10.93;6.00;;;;;;;29.91;51.31;98022.78;5147022;27;20236;-76
2023/08/21 06:45:52;;;;;;;12.20;5.80;;;;;;;30.04;50.53;98019.69;5140295;27;20262;-76
2023/08/21 06:48:18;;;;;;;7.30;5.17;;;;;;;30.17;50.28;98021.13;5132603;27;21639;-76
2023/08/21 06:50:43;;;;;;;7.03;5.20;;;;;;;30.30;49.85;98025.25;5132994;27;20478;-76
2023/08/21 06:53:09;;;;;;;7.13;5.37;;;;;;;30.43;49.39;98024.78;5131856;27;20471;-75
2023/08/21 06:55:34;;;;;;;5.97;5.37;;;;;;;30.60;49.06;98029.22;5132458;27;20670;-76
2023/08/21 06:58:00;;;;;;;11.97;5.43;;;;;;;30.75;48.88;98025.78;5140365;27;20200;-75
2023/08/21 07:00:25;;;;;;;9.73;5.50;;;;;;;30.86;47.96;98023.94;5140293;27;20271;-75
2023/08/21 07:02:51;;;;;;;6.67;5.40;;;;;;;30.98;47.84;98031.78;5122828;27;20210;-76
2023/08/21 07:05:16;;;;;;;6.63;5.13;;;;;;;31.11;48.03;98028.59;5130301;27;20946;-76
2023/08/21 07:07:41;;;;;;;6.53;5.73;;;;;;;31.27;47.38;98028.66;5146353;27;20206;-76
2023/08/21 07:10:08;;;;;;;5.80;5.27;;;;;;;31.38;47.10;98022.97;5142371;27;20196;-75
2023/08/21 07:12:33;;;;;;;8.00;5.30;;;;;;;31.45;47.24;98030.03;5135769;27;20204;-76
2023/08/21 07:14:59;;;;;;;10.10;5.00;;;;;;;31.52;46.72;98031.41;5143589;27;21211;-76
2023/08/21 07:17:24;;;;;;;5.67;5.17;;;;;;;31.58;46.92;98026.81;5134784;27;20865;-76
2023/08/21 07:19:52;;;;;;;8.17;5.50;;;;;;;31.62;46.49;98033.31;5136769;27;20787;-76
2023/08/21 07:22:18;;;;;;;5.60;5.00;;;;;;;31.74;46.55;98034.97;5130916;27;20281;-76
2023/08/21 07:24:43;;;;;;;9.60;5.57;;;;;;;31.78;45.80;98027.91;5094991;27;20999;-76
2023/08/21 07:27:08;;;;;;;7.17;5.33;;;;;;;31.93;46.12;98029.81;5139146;27;20184;-76
2023/08/21 07:29:34;;;;;;;8.13;5.50;;;;;;;32.05;45.89;98027.66;5131138;27;20240;-76
2023/08/21 07:32:01;;;;;;;5.77;4.97;;;;;;;32.23;45.41;98036.28;5139595;27;20212;-76
2023/08/21 07:34:26;;;;;;;8.87;5.33;;;;;;;32.34;44.88;98035.19;5128123;27;20184;-75
2023/08/21 07:36:52;;;;;;;10.00;5.00;;;;;;;32.46;44.73;98037.63;5134898;27;20473;-76
2023/08/21 07:39:17;;;;;;;5.90;4.90;;;;;;;32.60;44.76;98035.94;5129181;27;20288;-76
2023/08/21 07:41:43;;;;;;;6.03;4.73;;;;;;;32.72;43.97;98042.97;5132477;27;20253;-76
2023/08/21 07:44:08;;;;;;;8.67;5.27;;;;;;;32.88;43.53;98046.44;5139711;27;20192;-76
2023/08/21 07:46:33;;;;;;;10.93;5.53;;;;;;;33.01;43.34;98040.41;5139030;27;20188;-76
2023/08/21 07:48:59;;;;;;;18.90;5.67;;;;;;;33.12;43.25;98040.34;5138666;27;20729;-75
2023/08/21 07:51:24;;;;;;;7.40;5.67;;;;;;;33.31;43.05;98051.38;5136555;27;20212;-76
2023/08/21 07:53:50;;;;;;;5.40;4.90;;;;;;;33.46;42.60;98037.72;5131302;27;20225;-75
2023/08/21 07:56:15;;;;;;;13.13;5.60;;;;;;;33.62;42.06;98043.84;5132366;27;20225;-76
2023/08/21 07:58:41;;;;;;;8.50;5.80;;;;;;;33.81;42.52;98046.69;5117205;27;20190;-76
2023/08/21 08:01:06;;;;;;;5.90;5.10;;;;;;;33.94;41.52;98048.00;5134067;27;20181;-75
2023/08/21 08:03:32;;;;;;;5.73;5.03;;;;;;;34.08;41.32;98053.56;5131431;27;20242;-76
2023/08/21 08:05:57;;;;;;;6.00;5.40;;;;;;;34.24;40.76;98042.53;5133671;27;20187;-76
2023/08/21 08:08:23;;;;;;;7.63;5.43;;;;;;;34.40;40.69;98046.75;5149674;27;20206;-77
2023/08/21 08:10:48;;;;;;;7.50;5.17;;;;;;;34.56;40.60;98043.84;5124015;27;20256;-75
2023/08/21 08:13:14;;;;;;;5.97;5.37;;;;;;;34.70;40.04;98046.69;5138096;27;20211;-75
2023/08/21 08:15:40;;;;;;;5.53;4.93;;;;;;;34.84;39.58;98044.06;5138898;27;20271;-76
2023/08/21 08:18:11;;;;;;;6.67;4.80;;;;;;;34.95;39.34;98040.13;5121810;27;20188;-75
2023/08/21 08:20:36;;;;;;;7.00;5.43;;;;;;;34.98;38.89;98050.44;5116147;27;20187;-76
2023/08/21 08:23:02;;;;;;;8.80;5.83;;;;;;;35.06;39.00;98047.06;5142802;27;20918;-77
2023/08/21 08:25:27;;;;;;;8.37;5.50;;;;;;;35.13;38.52;98043.19;5124103;27;20626;-76
2023/08/21 08:27:53;;;;;;;11.53;5.00;;;;;;;35.10;38.22;98044.56;5136367;27;20180;-76
2023/08/21 08:30:18;;;;;;;7.73;5.53;;;;;;;35.04;38.54;98043.81;5121260;27;20275;-75
2023/08/21 08:32:44;;;;;;;7.83;5.70;;;;;;;35.01;38.34;98041.69;5116652;27;20220;-74
2023/08/21 08:35:12;;;;;;;9.23;5.60;;;;;;;34.94;38.33;98054.03;5110323;27;20184;-75
2023/08/21 08:37:37;;;;;;;8.30;5.80;;;;;;;34.95;38.67;98045.56;5125238;27;20789;-75
2023/08/21 08:40:04;;;;;;;8.10;5.80;;;;;;;34.93;38.81;98044.25;5130033;27;20409;-75
2023/08/21 08:42:30;;;;;;;9.90;5.47;;;;;;;34.82;39.16;98041.63;5146184;27;20249;-75
2023/08/21 08:44:56;;;;;;;7.17;5.37;;;;;;;34.84;39.34;98044.88;5129964;27;20418;-75
2023/08/21 08:47:21;;;;;;;5.80;5.20;;;;;;;34.96;39.52;98047.19;5112792;27;20241;-76
2023/08/21 08:49:48;;;;;;;6.10;5.50;;;;;;;34.95;38.64;98048.28;5118234;27;20687;-76
2023/08/21 08:52:15;;;;;;;5.87;5.13;;;;;;;35.02;38.39;98046.03;5119761;27;20291;-75
2023/08/21 08:54:40;;;;;;;7.37;5.40;;;;;;;35.09;38.75;98042.13;5118901;27;20421;-75
2023/08/21 08:57:05;;;;;;;6.77;5.73;;;;;;;35.26;38.75;98042.44;5137841;27;20429;-74
2023/08/21 08:59:31;;;;;;;7.30;5.90;;;;;;;35.45;38.34;98041.63;5138670;27;20751;-76
2023/08/21 09:01:57;;;;;;;11.17;5.90;;;;;;;35.52;38.44;98044.81;5129700;27;20195;-75
2023/08/21 09:04:22;;;;;;;11.60;5.50;;;;;;;35.66;37.63;98048.38;5137338;27;20650;-76
2023/08/21 09:06:47;;;;;;;7.33;4.83;;;;;;;35.87;37.22;98042.63;5133213;27;20190;-75
2023/08/21 09:09:13;;;;;;;7.07;5.63;;;;;;;36.05;37.35;98043.69;5146165;27;20183;-76
2023/08/21 09:11:46;;;;;;;8.20;4.90;;;;;;;36.30;36.96;98038.88;5133208;27;20217;-76
2023/08/21 09:14:11;;;;;;;7.93;5.33;;;;;;;36.52;36.78;98040.13;5110692;28;20628;-76
2023/08/21 09:16:37;;;;;;;10.23;5.20;;;;;;;36.66;36.17;98046.38;5129704;27;20422;-76
2023/08/21 09:19:02;;;;;;;5.30;4.80;;;;;;;36.83;34.73;98042.25;5143213;27;20538;-76
2023/08/21 09:21:28;;;;;;;9.97;5.00;;;;;;;36.99;34.86;98042.75;5120107;27;20212;-76
2023/08/21 09:23:59;;;;;;;7.40;5.37;;;;;;;37.08;34.45;98040.09;5147999;27;20214;-76
2023/08/21 09:26:24;;;;;;;6.97;5.30;;;;;;;37.18;34.64;98042.59;5147175;27;20269;-76
2023/08/21 09:28:51;;;;;;;11.20;5.03;;;;;;;37.11;34.80;98037.56;5145747;27;20465;-76
2023/08/21 09:31:21;;;;;;;8.97;4.40;;;;;;;37.16;33.24;98045.66;5142339;27;20251;-75
2023/08/21 09:33:55;;;;;;;5.93;5.30;;;;;;;37.13;33.86;98037.25;5128369;27;20988;-73
2023/08/21 09:36:21;;;;;;;10.63;5.23;;;;;;;37.16;33.13;98047.56;5104186;27;20914;-75
2023/08/21 09:38:47;;;;;;;9.70;5.90;;;;;;;37.16;33.23;98044.81;5141258;27;20512;-76
2023/08/21 09:41:14;;;;;;;7.27;5.10;;;;;;;37.23;33.46;98044.41;5133422;27;20294;-74
2023/08/21 09:43:43;;;;;;;7.40;5.23;;;;;;;37.33;33.39;98035.97;5102184;28;20524;-75
2023/08/21 09:46:08;;;;;;;6.50;4.60;;;;;;;37.50;32.83;98041.63;5129259;27;20191;-75
2023/08/21 09:48:34;;;;;;;15.43;5.50;;;;;;;37.75;32.71;98035.81;5123462;27;20480;-75
2023/08/21 09:51:03;;;;;;;8.37;5.20;;;;;;;37.99;32.21;98041.00;5132937;27;20294;-75
2023/08/21 09:53:29;;;;;;;8.37;4.33;;;;;;;38.09;31.63;98034.44;5134054;27;20286;-75
2023/08/21 09:55:55;;;;;;;6.77;4.47;;;;;;;38.20;31.24;98033.06;5139802;27;20270;-75
2023/08/21 09:58:21;;;;;;;6.70;4.60;;;;;;;38.34;30.99;98035.69;5132574;27;20189;-75
2023/08/21 10:00:48;;;;;;;7.80;4.47;;;;;;;38.44;31.51;98025.63;5137131;27;20298;-75
2023/08/21 10:03:17;;;;;;;8.87;4.60;;;;;;;38.59;31.07;98022.41;5117836;27;20230;-76
2023/08/21 10:05:42;;;;;;;6.63;4.30;;;;;;;38.72;30.70;98024.22;5116525;27;20266;-75
2023/08/21 10:08:09;;;;;;;5.50;4.07;;;;;;;38.90;29.86;98028.97;5121517;27;20228;-74
2023/08/21 10:10:36;;;;;;;10.17;4.10;;;;;;;39.01;29.73;98025.59;5130906;27;20214;-75
2023/08/21 10:13:02;;;;;;;11.43;4.43;;;;;;;39.09;29.84;98020.44;5108728;27;20726;-74
2023/08/21 10:15:28;;;;;;;9.03;3.90;;;;;;;39.20;30.19;98027.22;5105014;27;20286;-74
2023/08/21 10:17:54;;;;;;;8.30;4.23;;;;;;;39.07;29.54;98019.97;5132633;27;20214;-76
2023/08/21 10:20:25;;;;;;;9.47;4.50;;;;;;;39.15;29.42;98008.22;5113562;27;20211;-75
2023/08/21 10:22:55;;;;;;;8.63;4.13;;;;;;;39.23;29.26;98010.13;5145512;27;20586;-75
2023/08/21 10:25:25;;;;;;;6.45;4.25;;;;;;;39.25;29.59;98002.41;5126947;27;20190;-76
2023/08/21 10:27:55;;;;;;;8.07;4.30;;;;;;;39.35;29.17;98000.47;5132487;27;20515;-76
2023/08/21 10:30:26;;;;;;;9.20;4.30;;;;;;;39.45;29.28;98000.97;5140599;27;20260;-75
2023/08/21 10:32:53;;;;;;;28.27;4.35;;;;;;;39.66;29.16;97994.00;5139972;27;20441;-75
2023/08/21 10:35:21;;;;;;;5.30;4.20;;;;;;;39.82;29.10;97997.88;5126164;27;20184;-75
2023/08/21 10:38:06;;;;;;;5.70;4.20;;;;;;;39.83;28.77;97993.97;5105185;27;20197;-74
2023/08/21 10:40:32;;;;;;;7.50;4.35;;;;;;;39.90;28.72;97991.53;5132317;27;20270;-75
2023/08/21 10:42:58;;;;;;;5.27;4.40;;;;;;;39.94;28.69;97986.19;5138640;27;20195;-77
2023/08/21 10:45:24;;;;;;;4.50;4.10;;;;;;;39.89;28.17;97992.69;5142991;27;20230;-75
2023/08/21 10:47:50;;;;;;;7.55;4.15;;;;;;;39.84;28.01;97994.78;5128064;27;20651;-76
2023/08/21 10:50:16;;;;;;;13.52;3.85;;;;;;;39.97;28.80;97988.28;5136758;27;20208;-76
2023/08/21 10:52:44;;;;;;;6.70;4.28;;;;;;;40.07;28.19;97982.44;5113249;27;24290;-76
2023/08/21 10:55:11;;;;;;;7.22;4.50;;;;;;;39.67;28.05;97984.66;5147320;27;20664;-75
2023/08/21 10:57:37;;;;;;;11.30;4.38;;;;;;;39.69;28.81;97985.13;5132775;27;20190;-75
2023/08/21 11:00:12;;;;;;;5.50;4.28;;;;;;;39.89;28.77;97986.38;5139492;27;20191;-75
2023/08/21 11:02:41;;;;;;;8.40;4.38;;;;;;;40.01;28.67;97988.44;5133649;27;20203;-76
2023/08/21 11:05:07;;;;;;;5.03;4.43;;;;;;;40.05;28.66;97983.91;5093051;28;20227;-76
2023/08/21 11:07:44;;;;;;;9.93;4.53;;;;;;;40.13;27.76;97982.28;5112473;27;20217;-76
2023/08/21 11:10:13;;;;;;;8.82;4.53;;;;;;;40.19;27.64;97984.53;5122244;27;20245;-74
2023/08/21 11:12:38;;;;;;;7.07;4.93;;;;;;;40.09;27.79;97982.09;5079398;27;20199;-75
2023/08/21 11:15:05;;;;;;;9.75;4.40;;;;;;;40.11;27.95;97977.09;5118638;27;20201;-75
2023/08/21 11:17:30;;;;;;;8.43;4.30;;;;;;;40.18;28.19;97982.91;5142213;27;20187;-77
2023/08/21 11:19:56;;;;;;;6.30;3.78;;;;;;;40.20;28.89;97975.13;5139541;27;20240;-76
2023/08/21 11:22:28;;;;;;;10.32;4.65;;;;;;;40.35;28.23;97975.72;5139884;27;20203;-75
2023/08/21 11:24:53;;;;;;;5.18;4.25;;;;;;;40.47;28.49;97981.28;5139541;27;20324;-76
2023/08/21 11:27:19;;;;;;;6.80;4.53;;;;;;;40.63;27.26;97975.25;5147644;27;20179;-75